Time;durP1;ratioP1;P1;durP2;ratioP2;P2;SDS_P1;SDS_P2;PMS_P1;PMS_P2;Temp;Humidity;BMP_temperature;BMP_pressure;BME280_temperature;BME280_humidity;BME280_pressure;Samples;Min_cycle;Max_cycle;Signal;HPM_P1;HPM_P2
2022/10/08 00:01:42;;;;;;;14.20;10.00;;;;;;;9.17;96.27;102016.30;105742;1264;62859;-73
2022/10/08 00:04:11;;;;;;;15.10;9.60;;;;;;;9.13;97.35;102015.10;106293;1272;61735;-72
2022/10/08 00:06:40;;;;;;;12.40;9.90;;;;;;;9.06;97.28;101999.60;107223;1256;59291;-71
2022/10/08 00:09:09;;;;;;;14.10;10.90;;;;;;;9.10;98.04;102003.76;106017;1273;62696;-74
2022/10/08 00:11:39;;;;;;;15.20;10.20;;;;;;;9.11;99.14;102001.27;105681;1261;62253;-75
2022/10/08 00:14:08;;;;;;;16.40;10.40;;;;;;;9.14;99.65;101999.95;105656;1263;60880;-74
2022/10/08 00:16:40;;;;;;;13.30;10.20;;;;;;;9.15;99.68;101998.69;105572;1265;62615;-77
2022/10/08 00:19:14;;;;;;;15.50;10.30;;;;;;;9.15;98.86;101994.86;105640;1260;71932;-74
2022/10/08 00:21:45;;;;;;;11.10;9.30;;;;;;;9.15;98.43;101996.78;105635;1273;59162;-71
2022/10/08 00:24:18;;;;;;;12.70;9.60;;;;;;;9.17;98.38;101995.44;105578;1260;63167;-71
2022/10/08 00:26:47;;;;;;;15.10;9.80;;;;;;;9.20;98.14;101989.05;105627;1270;58958;-72
2022/10/08 00:29:18;;;;;;;11.10;9.00;;;;;;;9.18;97.56;101989.48;105581;1264;58898;-72
2022/10/08 00:31:49;;;;;;;11.20;9.30;;;;;;;9.19;97.60;101990.30;105577;1268;63315;-71
2022/10/08 00:34:22;;;;;;;14.90;10.30;;;;;;;9.24;97.44;101984.70;105613;1264;60758;-70
2022/10/08 00:36:53;;;;;;;18.20;9.80;;;;;;;9.32;97.76;101986.05;105599;1263;62049;-71
2022/10/08 00:39:24;;;;;;;13.40;9.10;;;;;;;9.36;97.21;101981.18;105472;1263;64054;-74
2022/10/08 00:41:54;;;;;;;12.50;9.50;;;;;;;9.36;96.53;101985.17;105578;1273;58957;-74
2022/10/08 00:45:00;;;;;;;13.60;10.30;;;;;;;9.34;96.79;101983.00;105573;1260;59138;-72
2022/10/08 00:47:32;;;;;;;12.60;9.70;;;;;;;9.31;96.77;101979.70;105633;1263;63857;-72
2022/10/08 00:50:14;;;;;;;12.80;9.20;;;;;;;9.32;96.75;101975.46;105562;1270;71499;-71
2022/10/08 00:52:55;;;;;;;13.60;9.70;;;;;;;9.41;96.52;101972.98;105750;1266;59920;-71
2022/10/08 00:55:26;;;;;;;11.40;9.40;;;;;;;9.39;96.20;101967.81;105631;1263;63148;-72
2022/10/08 00:58:18;;;;;;;13.40;9.20;;;;;;;9.38;96.04;101968.41;105563;1267;59104;-71
2022/10/08 01:00:47;;;;;;;12.10;9.30;;;;;;;9.29;95.97;101963.39;105569;1275;60227;-71
2022/10/08 01:03:16;;;;;;;10.60;8.50;;;;;;;9.27;96.03;101959.00;105506;1261;62749;-71
2022/10/08 01:06:23;;;;;;;11.70;8.30;;;;;;;9.25;95.89;101959.96;105595;1263;71939;-72
2022/10/08 01:09:12;;;;;;;14.10;8.30;;;;;;;9.22;96.02;101958.38;105615;1270;60290;-70
2022/10/08 01:12:00;;;;;;;11.40;8.70;;;;;;;9.19;96.23;101954.70;105567;1270;62424;-71
2022/10/08 01:15:05;;;;;;;14.90;9.20;;;;;;;9.20;96.56;101950.45;105599;1264;59581;-73
2022/10/08 01:17:51;;;;;;;12.70;9.40;;;;;;;9.25;96.53;101950.08;105638;1263;59067;-72
2022/10/08 01:20:54;;;;;;;13.50;9.00;;;;;;;9.34;96.35;101946.34;105544;1274;73758;-72
2022/10/08 01:23:59;;;;;;;11.40;8.60;;;;;;;9.42;95.67;101948.91;105393;1266;72838;-71
2022/10/08 01:27:03;;;;;;;12.90;8.90;;;;;;;9.43;95.42;101943.65;105598;1274;69918;-72
2022/10/08 01:29:41;;;;;;;13.20;8.50;;;;;;;9.45;95.42;101943.00;105542;1270;64093;-71
2022/10/08 01:32:20;;;;;;;13.30;8.40;;;;;;;9.48;95.19;101946.36;105576;1260;59514;-72
2022/10/08 01:34:56;;;;;;;11.40;8.60;;;;;;;9.55;95.41;101944.63;105490;1270;61089;-74
2022/10/08 01:37:35;;;;;;;13.80;9.10;;;;;;;9.59;95.06;101947.39;105409;1266;63294;-75
2022/10/08 01:40:11;;;;;;;16.10;9.00;;;;;;;9.59;94.79;101952.11;105413;1263;71971;-72
2022/10/08 01:42:40;;;;;;;11.40;8.60;;;;;;;9.57;94.67;101950.62;105430;1264;60334;-73
2022/10/08 01:45:19;;;;;;;12.60;8.90;;;;;;;9.55;94.92;101947.59;105416;1271;63515;-74
2022/10/08 01:47:49;;;;;;;10.80;7.70;;;;;;;9.53;95.44;101941.93;105402;1270;61962;-74
2022/10/08 01:50:29;;;;;;;13.10;8.90;;;;;;;9.53;95.05;101939.48;105522;1270;60986;-70
2022/10/08 01:53:04;;;;;;;10.60;8.20;;;;;;;9.52;95.30;101938.30;105476;1265;62632;-72
2022/10/08 01:55:39;;;;;;;12.10;8.60;;;;;;;9.50;94.80;101936.54;105627;1270;60749;-73
2022/10/08 01:58:48;;;;;;;12.20;9.20;;;;;;;9.54;95.72;101940.15;105484;1274;59115;-73
2022/10/08 02:01:40;;;;;;;16.10;9.20;;;;;;;9.55;95.96;101939.06;105494;1260;62914;-72
2022/10/08 02:07:00;;;;;;;11.10;8.30;;;;;;;9.46;95.39;101937.77;105319;1266;59044;-71
2022/10/08 02:09:34;;;;;;;12.80;8.90;;;;;;;9.45;95.66;101940.09;105412;1265;73510;-71
2022/10/08 02:12:04;;;;;;;12.50;9.20;;;;;;;9.39;95.57;101938.30;105588;1267;71820;-70
2022/10/08 02:14:36;;;;;;;12.90;8.70;;;;;;;9.37;95.88;101934.39;105666;1264;69980;-70
2022/10/08 02:17:17;;;;;;;11.70;8.70;;;;;;;9.31;95.56;101939.70;105658;1272;63514;-72
2022/10/08 02:20:29;;;;;;;13.60;8.60;;;;;;;9.28;95.83;101940.86;105732;1260;58901;-72
2022/10/08 02:23:20;;;;;;;16.90;9.30;;;;;;;9.26;95.96;101944.77;105527;1264;61603;-71
2022/10/08 02:25:57;;;;;;;14.40;9.70;;;;;;;9.19;96.12;101944.77;105616;1264;73181;-71
2022/10/08 02:28:42;;;;;;;14.00;9.30;;;;;;;9.14;96.12;101945.90;105651;1261;71540;-71
2022/10/08 02:31:25;;;;;;;29.40;19.00;;;;;;;9.07;96.56;101946.75;105621;1264;70681;-72
2022/10/08 02:34:20;;;;;;;12.10;9.20;;;;;;;8.99;96.58;101944.33;105609;1263;73999;-70
2022/10/08 02:37:09;;;;;;;12.90;9.60;;;;;;;8.96;97.32;101946.53;105488;1260;59110;-71
2022/10/08 02:39:46;;;;;;;12.60;9.30;;;;;;;8.96;97.03;101941.30;105622;1260;60843;-71
2022/10/08 02:42:20;;;;;;;13.80;9.70;;;;;;;8.91;96.92;101938.44;105581;1267;63317;-70
2022/10/08 02:45:02;;;;;;;13.70;9.60;;;;;;;8.85;97.49;101935.61;105454;1271;61506;-73
2022/10/08 02:47:36;;;;;;;13.20;9.60;;;;;;;8.78;97.54;101935.38;105494;1262;69632;-70
2022/10/08 02:50:14;;;;;;;14.10;10.00;;;;;;;8.71;97.80;101936.91;105462;1267;74192;-71
2022/10/08 02:52:44;;;;;;;18.20;10.00;;;;;;;8.66;98.15;101931.96;105533;1262;58947;-70
2022/10/08 02:55:22;;;;;;;12.60;10.00;;;;;;;8.68;98.68;101934.10;105316;1267;62656;-70
2022/10/08 02:58:04;;;;;;;14.60;10.10;;;;;;;8.66;97.87;101935.77;105507;1264;63511;-70
2022/10/08 03:08:31;;;;;;;14.60;10.70;;;;;;;8.49;98.40;101930.61;101980;1306;600124;-77
2022/10/08 03:11:00;;;;;;;14.60;10.00;;;;;;;8.43;98.35;101932.92;105076;1266;62721;-76
2022/10/08 03:13:35;;;;;;;13.80;10.30;;;;;;;8.47;98.47;101932.94;105255;1267;57293;-75
2022/10/08 03:16:07;;;;;;;12.70;10.60;;;;;;;8.44;98.24;101932.20;105302;1273;71712;-72
2022/10/08 03:18:38;;;;;;;17.50;11.00;;;;;;;8.40;98.43;101930.46;105330;1273;61996;-73
2022/10/08 03:21:09;;;;;;;15.20;11.00;;;;;;;8.34;98.38;101930.36;105016;1267;596506;-72
2022/10/08 03:23:37;;;;;;;14.70;11.00;;;;;;;8.33;99.11;101931.64;105611;1259;73661;-72
2022/10/08 03:26:06;;;;;;;16.70;11.50;;;;;;;8.35;98.51;101932.39;105611;1263;57409;-72
2022/10/08 03:28:35;;;;;;;15.70;11.30;;;;;;;8.28;97.83;101926.80;105603;1267;61443;-74
2022/10/08 03:31:07;;;;;;;18.80;12.10;;;;;;;8.21;97.99;101924.67;105625;1266;71596;-70
2022/10/08 03:33:35;;;;;;;18.80;11.30;;;;;;;8.16;98.12;101927.70;105599;1269;71453;-69
2022/10/08 03:36:05;;;;;;;17.10;10.70;;;;;;;8.11;98.29;101923.89;105630;1268;60294;-70
2022/10/08 03:38:34;;;;;;;22.40;11.90;;;;;;;8.14;98.65;101922.90;105522;1272;73824;-72
2022/10/08 03:41:02;;;;;;;15.80;11.90;;;;;;;8.10;98.48;101923.08;105617;1259;62069;-73
2022/10/08 03:43:33;;;;;;;19.20;12.60;;;;;;;8.08;98.83;101921.59;105548;1270;58973;-70
2022/10/08 03:46:02;;;;;;;17.30;11.50;;;;;;;8.04;98.99;101917.77;105429;1268;62184;-74
2022/10/08 03:48:31;;;;;;;15.60;11.40;;;;;;;8.01;99.59;101916.01;105559;1262;60773;-74
2022/10/08 03:51:04;;;;;;;18.40;11.70;;;;;;;7.95;99.38;101909.30;105507;1261;70322;-72
2022/10/08 03:53:35;;;;;;;16.00;11.00;;;;;;;7.97;99.93;101907.48;105605;1260;73319;-74
2022/10/08 03:56:08;;;;;;;20.70;12.40;;;;;;;7.98;99.55;101907.79;105647;1262;59029;-73
2022/10/08 03:58:37;;;;;;;20.00;11.60;;;;;;;7.95;99.17;101908.63;105656;1264;59355;-72
2022/10/08 04:01:11;;;;;;;16.80;11.50;;;;;;;7.94;99.36;101910.89;105541;1261;73327;-71
2022/10/08 04:03:40;;;;;;;18.50;13.20;;;;;;;8.04;99.24;101911.52;105625;1272;72833;-71
2022/10/08 04:06:08;;;;;;;14.20;11.80;;;;;;;7.98;98.44;101906.20;105665;1262;70000;-70
2022/10/08 04:08:37;;;;;;;16.10;11.70;;;;;;;7.92;98.16;101902.84;105650;1272;63998;-71
2022/10/08 04:11:10;;;;;;;28.60;17.70;;;;;;;7.86;98.08;101902.39;105598;1270;59105;-71
2022/10/08 04:13:38;;;;;;;43.40;24.80;;;;;;;7.80;98.48;101902.66;105639;1264;60089;-70
2022/10/08 04:16:17;;;;;;;20.40;12.40;;;;;;;7.77;99.16;101900.36;105656;1267;63084;-72
2022/10/08 04:18:47;;;;;;;18.60;12.30;;;;;;;7.72;99.64;101899.52;105624;1267;61502;-71
2022/10/08 04:21:18;;;;;;;18.00;11.90;;;;;;;7.68;99.78;101901.42;105613;1272;70654;-70
2022/10/08 04:23:50;;;;;;;17.20;11.50;;;;;;;7.64;99.86;101898.98;105636;1268;62837;-70
2022/10/08 04:26:18;;;;;;;15.80;12.30;;;;;;;7.62;99.78;101899.95;105496;1264;63256;-70
2022/10/08 04:28:47;;;;;;;16.00;11.70;;;;;;;7.59;99.47;101898.83;105640;1263;58972;-70
2022/10/08 04:31:20;;;;;;;20.90;11.80;;;;;;;7.58;99.27;101899.90;105560;1266;62058;-71
2022/10/08 04:33:51;;;;;;;16.90;11.30;;;;;;;7.58;99.16;101901.27;105694;1272;61545;-72
2022/10/08 04:36:23;;;;;;;22.40;14.10;;;;;;;7.59;98.98;101901.60;105581;1260;59888;-73
2022/10/08 04:38:52;;;;;;;16.90;11.50;;;;;;;7.58;98.87;101901.30;105620;1260;74789;-73
2022/10/08 04:41:25;;;;;;;17.70;11.10;;;;;;;7.58;98.54;101898.34;105627;1265;63684;-77
2022/10/08 04:43:59;;;;;;;26.00;13.80;;;;;;;7.59;98.84;101898.29;105686;1264;59093;-75
2022/10/08 04:46:28;;;;;;;17.00;11.40;;;;;;;7.63;98.94;101900.05;105467;1273;62074;-77
2022/10/08 04:48:58;;;;;;;21.20;14.10;;;;;;;7.72;98.68;101898.84;105608;1264;60769;-79
2022/10/08 04:51:27;;;;;;;17.90;13.30;;;;;;;7.79;98.92;101900.27;105754;1272;70291;-86
2022/10/08 04:53:57;;;;;;;20.80;13.20;;;;;;;7.84;99.01;101899.39;105751;1260;62684;-76
2022/10/08 04:56:30;;;;;;;21.70;12.10;;;;;;;7.89;99.04;101902.60;105730;1262;62897;-74
2022/10/08 04:58:59;;;;;;;;;;;;;;;7.95;99.01;101903.77;106957;1267;60888;-75
2022/10/08 05:01:30;;;;;;;23.10;12.10;;;;;;;7.99;98.90;101904.11;107439;1264;72468;-77
2022/10/08 05:03:59;;;;;;;25.10;12.70;;;;;;;8.07;98.58;101910.35;106622;1264;71493;-76
2022/10/08 05:06:30;;;;;;;24.00;12.50;;;;;;;8.18;98.05;101908.52;105555;1267;70370;-78
2022/10/08 05:09:02;;;;;;;19.80;12.70;;;;;;;8.33;98.30;101909.24;105602;1264;73535;-80
2022/10/08 05:11:31;;;;;;;22.80;13.10;;;;;;;8.47;98.50;101908.32;105753;1270;61889;-77
2022/10/08 05:14:00;;;;;;;17.30;11.60;;;;;;;8.58;97.47;101906.08;105718;1272;62196;-78
2022/10/08 05:16:29;;;;;;;21.30;12.30;;;;;;;8.67;96.57;101906.02;105687;1264;62060;-78
2022/10/08 05:18:58;;;;;;;18.00;13.10;;;;;;;8.80;97.04;101908.02;105589;1267;71594;-76
2022/10/08 05:21:29;;;;;;;21.10;14.70;;;;;;;8.90;97.47;101901.98;105574;1270;70466;-77
2022/10/08 05:24:05;;;;;;;24.10;15.80;;;;;;;9.01;97.79;101902.02;105664;1264;63538;-76
2022/10/08 05:26:38;;;;;;;23.30;13.90;;;;;;;9.14;97.46;101904.37;105416;1263;59120;-77
2022/10/08 05:29:29;;;;;;;24.40;13.90;;;;;;;9.25;96.42;101903.83;105600;1275;61105;-78
2022/10/08 05:31:57;;;;;;;28.90;19.60;;;;;;;9.40;95.26;101905.73;105377;1267;73459;-74
2022/10/08 05:34:26;;;;;;;25.80;18.50;;;;;;;9.52;94.72;101905.11;105554;1270;61521;-74
2022/10/08 05:36:55;;;;;;;25.00;16.80;;;;;;;9.65;94.96;101906.75;105586;1265;59174;-78
2022/10/08 05:39:23;;;;;;;20.80;14.80;;;;;;;9.76;94.30;101904.98;105578;1273;73770;-75
2022/10/08 05:41:53;;;;;;;25.10;15.80;;;;;;;9.83;94.08;101907.39;105702;1265;58883;-76
2022/10/08 05:44:22;;;;;;;20.20;13.90;;;;;;;9.92;93.97;101905.93;105651;1266;61198;-75
2022/10/08 05:46:50;;;;;;;23.20;15.40;;;;;;;10.06;93.31;101904.83;105689;1267;72383;-80
2022/10/08 05:49:22;;;;;;;26.10;15.90;;;;;;;10.12;92.75;101903.84;105873;1267;72335;-78
2022/10/08 05:51:50;;;;;;;22.20;16.30;;;;;;;10.26;92.57;101901.44;105772;1267;70261;-73
2022/10/08 05:54:19;;;;;;;27.20;17.50;;;;;;;10.36;91.90;101902.64;105781;1272;63522;-78
2022/10/08 05:56:48;;;;;;;31.00;19.40;;;;;;;10.44;91.35;101906.20;105795;1264;58930;-78
2022/10/08 05:59:21;;;;;;;28.80;18.70;;;;;;;10.58;91.50;101910.20;105667;1267;60100;-83
2022/10/08 06:01:50;;;;;;;;;;;;;;;10.62;90.63;101904.55;105820;1267;72423;-80
2022/10/08 06:04:19;;;;;;;29.20;18.70;;;;;;;10.72;89.72;101904.89;105767;1264;61332;-79
2022/10/08 06:06:47;;;;;;;22.80;17.30;;;;;;;10.74;89.76;101906.36;105709;1264;70362;-79
2022/10/08 06:09:19;;;;;;;23.70;16.90;;;;;;;10.80;88.71;101903.95;105534;1270;63822;-79
2022/10/08 06:11:49;;;;;;;24.50;18.10;;;;;;;10.86;88.19;101905.54;105623;1273;59078;-78
2022/10/08 06:14:19;;;;;;;27.30;17.80;;;;;;;10.92;87.58;101906.05;105579;1268;60268;-81
2022/10/08 06:16:47;;;;;;;24.00;17.90;;;;;;;11.02;87.11;101907.27;105686;1261;73239;-79
2022/10/08 06:19:16;;;;;;;27.10;18.10;;;;;;;11.14;87.35;101906.43;105695;1263;61369;-79
2022/10/08 06:21:45;;;;;;;26.00;17.40;;;;;;;11.20;85.98;101906.61;105888;1269;69616;-80
2022/10/08 06:24:13;;;;;;;29.90;17.50;;;;;;;11.32;85.72;101902.61;105971;1260;73264;-77
2022/10/08 06:26:43;;;;;;;26.90;16.20;;;;;;;11.43;84.62;101902.87;106074;1255;58258;-81
2022/10/08 06:29:17;;;;;;;23.90;18.30;;;;;;;11.50;84.29;101902.99;106054;1260;59086;-79
2022/10/08 06:31:47;;;;;;;24.60;18.80;;;;;;;11.61;84.23;101900.64;105999;1255;72574;-77
2022/10/08 06:34:16;;;;;;;26.00;17.70;;;;;;;11.73;83.15;101905.67;105876;1260;61386;-78
2022/10/08 06:36:45;;;;;;;26.80;17.90;;;;;;;11.80;82.12;101903.89;105967;1260;70177;-78
2022/10/08 06:39:15;;;;;;;22.40;16.70;;;;;;;11.86;81.68;101900.91;105986;1262;73722;-80
2022/10/08 06:41:44;;;;;;;23.40;15.90;;;;;;;11.99;81.45;101898.94;105922;1260;62764;-80
2022/10/08 06:44:14;;;;;;;24.80;15.50;;;;;;;12.11;81.38;101893.19;105743;1257;59589;-80
2022/10/08 06:46:42;;;;;;;23.90;14.70;;;;;;;12.23;80.05;101895.42;105935;1255;72601;-80
2022/10/08 06:49:11;;;;;;;21.70;14.80;;;;;;;12.41;79.25;101890.64;105923;1259;71831;-79
2022/10/08 06:51:40;;;;;;;20.80;15.30;;;;;;;12.49;78.37;101882.80;105872;1262;58935;-80
2022/10/08 06:54:09;;;;;;;19.60;14.80;;;;;;;12.62;78.55;101881.15;105901;1260;73680;-81
2022/10/08 06:56:37;;;;;;;21.90;14.80;;;;;;;12.73;77.81;101875.52;105717;1257;62579;-81
2022/10/08 06:59:07;;;;;;;18.90;14.50;;;;;;;12.90;77.02;101872.88;105798;1268;60876;-79
2022/10/08 07:01:37;;;;;;;21.80;14.80;;;;;;;13.06;76.74;101870.64;105823;1266;61295;-81
2022/10/08 07:04:06;;;;;;;21.50;14.60;;;;;;;13.24;77.22;101872.12;105866;1264;71603;-80
2022/10/08 07:06:35;;;;;;;22.20;14.80;;;;;;;13.38;76.65;101869.66;105935;1260;60579;-81
2022/10/08 07:09:05;;;;;;;20.40;14.20;;;;;;;13.51;74.45;101866.67;106007;1264;74833;-79
2022/10/08 07:11:34;;;;;;;21.80;14.80;;;;;;;13.66;74.73;101866.41;106071;1269;58938;-81
2022/10/08 07:14:03;;;;;;;17.80;13.60;;;;;;;13.78;72.88;101861.02;106104;1260;59141;-81
2022/10/08 07:16:32;;;;;;;17.80;13.10;;;;;;;13.92;72.09;101859.02;107987;1259;71902;-80
2022/10/08 07:19:02;;;;;;;22.60;13.50;;;;;;;14.07;71.70;101857.77;107799;1264;73420;-81
2022/10/08 07:21:30;;;;;;;23.00;12.10;;;;;;;14.18;69.87;101851.09;106142;1266;70500;-80
2022/10/08 07:24:07;;;;;;;20.70;12.10;;;;;;;14.29;68.31;101853.79;106074;1250;74073;-83
2022/10/08 07:26:38;;;;;;;21.40;11.20;;;;;;;14.47;68.30;101853.09;105937;1260;60092;-81
2022/10/08 07:29:12;;;;;;;17.90;11.20;;;;;;;14.57;69.11;101851.19;105695;1257;61550;-76
2022/10/08 07:31:41;;;;;;;19.50;11.50;;;;;;;14.70;66.05;101844.48;105888;1264;72587;-88
2022/10/08 07:34:12;;;;;;;23.60;10.90;;;;;;;14.86;65.88;101844.84;106057;1255;72211;-90
2022/10/08 07:36:41;;;;;;;22.60;10.40;;;;;;;15.00;66.14;101847.04;106021;1268;59940;-89
2022/10/08 07:39:13;;;;;;;18.60;9.70;;;;;;;15.13;66.77;101845.90;105927;1252;74679;-88
2022/10/08 07:41:42;;;;;;;25.20;10.50;;;;;;;15.24;63.74;101839.77;105992;1268;61514;-89
2022/10/08 07:44:11;;;;;;;12.80;6.60;;;;;;;15.38;62.98;101843.52;106050;1263;58660;-87
2022/10/08 07:46:46;;;;;;;14.60;8.30;;;;;;;15.50;61.11;101841.90;105978;1269;62886;-88
2022/10/08 07:49:18;;;;;;;18.40;9.70;;;;;;;15.65;60.83;101835.89;106177;1264;61492;-88
2022/10/08 07:51:48;;;;;;;12.60;9.30;;;;;;;15.75;61.06;101835.96;106040;1266;69334;-88
2022/10/08 07:54:18;;;;;;;16.30;8.60;;;;;;;15.83;60.54;101831.02;106052;1263;74015;-87
2022/10/08 07:56:48;;;;;;;12.60;6.90;;;;;;;15.94;59.22;101823.15;106018;1267;59088;-85
2022/10/08 07:59:17;;;;;;;17.30;8.90;;;;;;;16.00;58.13;101821.45;106064;1264;57289;-84
2022/10/08 08:01:48;;;;;;;18.20;8.90;;;;;;;16.10;57.92;101817.09;105974;1267;71226;-84
2022/10/08 08:04:29;;;;;;;11.50;6.00;;;;;;;16.25;57.38;101816.48;106011;1266;63014;-84
2022/10/08 08:07:25;;;;;;;13.70;6.10;;;;;;;16.38;55.27;101814.06;105956;1257;69116;-84
2022/10/08 08:09:54;;;;;;;9.50;5.90;;;;;;;16.48;55.82;101813.92;105988;1269;63575;-83
2022/10/08 08:12:22;;;;;;;10.90;5.10;;;;;;;16.62;56.27;101811.60;105791;1264;61334;-84
2022/10/08 08:14:53;;;;;;;12.60;5.80;;;;;;;16.76;56.14;101807.66;106026;1266;59026;-83
2022/10/08 08:17:22;;;;;;;9.20;4.90;;;;;;;16.90;56.46;101803.32;105939;1272;62105;-88
2022/10/08 08:19:51;;;;;;;11.40;5.20;;;;;;;17.03;54.99;101800.70;105814;1255;69662;-82
2022/10/08 08:22:19;;;;;;;9.50;5.30;;;;;;;17.02;52.05;101791.80;106077;1255;70358;-81
2022/10/08 08:24:48;;;;;;;11.10;4.90;;;;;;;17.10;52.96;101791.67;106042;1262;62835;-80
2022/10/08 08:27:35;;;;;;;;;;;;;;;;;;;;;
2022/10/08 08:30:30;;;;;;;7.60;4.00;;;;;;;17.36;50.91;101783.83;105971;1269;61640;-82
2022/10/08 08:32:58;;;;;;;8.10;3.80;;;;;;;17.44;50.35;101782.80;106182;1259;61937;-82
2022/10/08 08:35:31;;;;;;;7.60;4.20;;;;;;;17.47;48.80;101783.78;106186;1266;60747;-82
2022/10/08 08:37:59;;;;;;;8.50;3.60;;;;;;;17.61;48.64;101783.70;106015;1260;70347;-82
2022/10/08 08:40:28;;;;;;;15.80;4.10;;;;;;;17.79;46.45;101779.54;106025;1267;62999;-82
2022/10/08 08:42:57;;;;;;;6.90;3.50;;;;;;;17.90;45.65;101778.80;105897;1272;61225;-83
2022/10/08 08:45:29;;;;;;;5.50;3.50;;;;;;;17.97;45.30;101776.96;105982;1254;60709;-80
2022/10/08 08:48:31;;;;;;;6.30;4.00;;;;;;;17.75;45.15;101775.95;105902;1261;71803;-80
2022/10/08 08:51:03;;;;;;;7.50;3.40;;;;;;;17.79;45.45;101772.30;106008;1269;61967;-79
2022/10/08 08:53:32;;;;;;;9.40;3.50;;;;;;;18.00;47.40;101771.38;105934;1255;62042;-81
2022/10/08 08:56:05;;;;;;;14.30;6.90;;;;;;;18.16;45.93;101767.34;105895;1254;63853;-82
2022/10/08 08:58:44;;;;;;;7.40;3.50;;;;;;;18.28;44.02;101765.39;106001;1262;59107;-82
2022/10/08 09:01:28;;;;;;;6.70;3.00;;;;;;;18.44;45.89;101765.14;105779;1266;58996;-81
2022/10/08 09:04:48;;;;;;;6.70;3.20;;;;;;;18.54;45.00;101761.80;105870;1267;62926;-86
2022/10/08 09:07:26;;;;;;;6.20;2.70;;;;;;;18.68;44.04;101755.52;105974;1266;60863;-80
2022/10/08 09:09:57;;;;;;;4.40;2.50;;;;;;;18.75;44.44;101750.45;105951;1269;59921;-81
2022/10/08 09:12:36;;;;;;;8.30;3.50;;;;;;;18.78;44.06;101746.80;106205;1269;62438;-80
2022/10/08 09:15:25;;;;;;;11.80;3.40;;;;;;;18.76;42.57;101743.80;105781;1264;58813;-80
2022/10/08 09:18:02;;;;;;;14.40;3.10;;;;;;;18.80;42.63;101741.48;105671;1266;59030;-79
2022/10/08 09:20:31;;;;;;;8.70;3.00;;;;;;;18.91;41.78;101737.02;105826;1273;61936;-79
2022/10/08 09:23:21;;;;;;;6.00;2.60;;;;;;;19.01;40.72;101735.04;106032;1256;61647;-79
2022/10/08 09:26:07;;;;;;;6.00;2.60;;;;;;;19.14;41.10;101728.83;105933;1269;59162;-80
2022/10/08 09:28:39;;;;;;;6.40;2.40;;;;;;;19.19;40.89;101730.72;106083;1267;63136;-79
2022/10/08 09:31:39;;;;;;;5.30;2.20;;;;;;;19.28;42.06;101732.71;106158;1267;61291;-78
2022/10/08 09:34:17;;;;;;;4.50;2.80;;;;;;;19.27;41.56;101733.14;106087;1261;59075;-83
2022/10/08 09:37:18;;;;;;;3.60;2.00;;;;;;;19.43;42.95;101731.97;106063;1260;72573;-72
2022/10/08 09:40:12;;;;;;;4.00;2.40;;;;;;;19.49;41.47;101728.95;106001;1261;72557;-76
2022/10/08 09:42:41;;;;;;;9.20;2.40;;;;;;;19.54;42.16;101724.25;106246;1261;59472;-78
2022/10/08 09:45:48;;;;;;;6.20;2.30;;;;;;;19.45;40.73;101715.77;106146;1260;73835;-81
2022/10/08 09:48:26;;;;;;;6.80;2.20;;;;;;;19.41;41.03;101718.39;106411;1264;60960;-77
2022/10/08 09:51:17;;;;;;;4.50;2.60;;;;;;;19.34;41.51;101716.93;106156;1259;61535;-78
2022/10/08 09:53:53;;;;;;;6.20;2.50;;;;;;;19.57;42.32;101713.00;106083;1266;62743;-78
2022/10/08 09:56:29;;;;;;;6.80;2.60;;;;;;;19.63;41.56;101705.23;106098;1260;61489;-81
2022/10/08 09:59:08;;;;;;;6.00;2.50;;;;;;;19.56;40.76;101701.04;106087;1269;59870;-79
2022/10/08 10:01:45;;;;;;;4.30;2.30;;;;;;;19.62;41.15;101695.98;105954;1269;73759;-78
2022/10/08 10:04:37;;;;;;;7.70;2.80;;;;;;;19.60;41.44;101694.15;105989;1265;58288;-80
2022/10/08 10:07:06;;;;;;;5.90;2.30;;;;;;;19.72;41.22;101682.63;105921;1257;61145;-82
2022/10/08 10:09:45;;;;;;;5.60;2.70;;;;;;;19.68;40.96;101677.91;105805;1267;62908;-78
2022/10/08 10:12:23;;;;;;;6.00;2.40;;;;;;;19.66;40.91;101676.06;106052;1264;72221;-78
2022/10/08 10:14:58;;;;;;;9.80;3.40;;;;;;;19.68;41.15;101674.14;105997;1269;70561;-78
2022/10/08 10:17:54;;;;;;;4.60;2.50;;;;;;;19.90;40.95;101669.06;106035;1252;63563;-80
2022/10/08 10:20:54;;;;;;;10.30;3.10;;;;;;;20.31;41.23;101668.60;106115;1263;59403;-81
2022/10/08 10:23:39;;;;;;;7.90;3.50;;;;;;;20.69;40.57;101663.92;107001;1266;60891;-78
2022/10/08 10:26:24;;;;;;;5.70;3.00;;;;;;;20.98;40.10;101664.56;106148;1260;63404;-80
2022/10/08 10:29:18;;;;;;;8.20;3.20;;;;;;;21.16;39.64;101657.20;106066;1261;71060;-77
2022/10/08 10:32:10;;;;;;;6.60;3.10;;;;;;;21.53;39.92;101651.44;105860;1260;70830;-78
2022/10/08 10:35:29;;;;;;;4.80;2.60;;;;;;;21.83;38.59;101645.31;102694;1295;600269;-78
2022/10/08 10:38:23;;;;;;;5.00;2.50;;;;;;;21.88;38.72;101639.07;104428;1283;59001;-80
2022/10/08 10:41:42;;;;;;;6.20;2.50;;;;;;;21.83;38.69;101633.34;105098;1276;59563;-76
2022/10/08 10:44:17;;;;;;;4.80;2.50;;;;;;;22.05;38.58;101632.17;105094;1276;60648;-78
2022/10/08 10:46:56;;;;;;;6.30;2.80;;;;;;;22.34;38.87;101622.63;105151;1273;61510;-78
2022/10/08 10:49:37;;;;;;;5.90;2.70;;;;;;;22.49;37.91;101624.70;105196;1263;333837;-76
2022/10/08 10:53:03;;;;;;;4.40;2.50;;;;;;;22.58;37.80;101623.91;105487;1275;63901;-79
2022/10/08 10:55:43;;;;;;;4.30;2.30;;;;;;;22.28;36.69;101621.14;105542;1272;59703;-80
2022/10/08 10:58:36;;;;;;;10.90;2.70;;;;;;;22.80;36.34;101608.01;105568;1267;59742;-80
2022/10/08 11:01:11;;;;;;;4.10;2.30;;;;;;;23.00;36.45;101606.84;105459;1263;70734;-78
2022/10/08 11:03:59;;;;;;;9.20;3.70;;;;;;;23.46;36.28;101600.10;105489;1267;71685;-80
2022/10/08 11:07:17;;;;;;;9.80;3.30;;;;;;;22.98;36.05;101596.42;105457;1273;59588;-76
2022/10/08 11:10:28;;;;;;;6.90;2.90;;;;;;;23.46;35.67;101586.73;105487;1273;72884;-80
2022/10/08 11:13:26;;;;;;;6.30;3.00;;;;;;;22.84;36.19;101584.14;105231;1265;59120;-76
2022/10/08 11:16:23;;;;;;;8.90;3.00;;;;;;;23.01;36.07;101573.96;105476;1275;61096;-84
2022/10/08 11:18:57;;;;;;;4.90;2.30;;;;;;;23.02;35.49;101573.63;105375;1267;73416;-82
2022/10/08 11:21:50;;;;;;;7.20;2.80;;;;;;;22.78;35.79;101565.46;105330;1270;61884;-80
2022/10/08 11:24:53;;;;;;;4.90;2.60;;;;;;;22.38;36.81;101559.41;105482;1266;61394;-80
2022/10/08 11:27:57;;;;;;;4.60;2.70;;;;;;;23.14;36.40;101551.66;105621;1270;62388;-79
2022/10/08 11:30:58;;;;;;;7.40;3.00;;;;;;;23.56;35.21;101543.16;105384;1278;61278;-83
2022/10/08 11:33:29;;;;;;;6.20;2.50;;;;;;;23.28;35.08;101540.30;105329;1276;61055;-80
2022/10/08 11:36:22;;;;;;;5.20;2.60;;;;;;;23.51;35.18;101541.77;105195;1274;72209;-81
2022/10/08 11:39:08;;;;;;;4.10;2.40;;;;;;;24.22;33.83;101536.15;105397;1278;61363;-81
2022/10/08 11:42:41;;;;;;;5.80;2.20;;;;;;;24.37;32.06;101533.18;105449;1265;70418;-84
2022/10/08 11:45:32;;;;;;;7.00;3.00;;;;;;;24.43;32.90;101527.30;104868;1283;73538;-68
2022/10/08 11:48:29;;;;;;;3.70;2.30;;;;;;;24.41;33.10;101525.98;105296;1278;57449;-70
2022/10/08 11:51:20;;;;;;;6.00;2.50;;;;;;;24.63;32.39;101521.58;105461;1274;57488;-71
2022/10/08 11:54:08;;;;;;;6.30;2.60;;;;;;;24.88;31.63;101520.22;105333;1267;62612;-69
2022/10/08 11:56:50;;;;;;;3.90;2.40;;;;;;;24.88;31.71;101514.97;105418;1267;60716;-71
2022/10/08 12:00:00;;;;;;;4.70;2.20;;;;;;;24.69;31.51;101514.77;105322;1269;59857;-69
2022/10/08 12:02:42;;;;;;;5.40;2.30;;;;;;;24.56;31.49;101509.25;105291;1264;73917;-69
2022/10/08 12:05:20;;;;;;;4.90;2.70;;;;;;;24.58;31.94;101503.33;105334;1278;59419;-70
2022/10/08 12:07:57;;;;;;;6.00;2.70;;;;;;;24.63;31.75;101499.29;105385;1266;57276;-69
2022/10/08 12:10:30;;;;;;;4.60;2.60;;;;;;;24.93;31.51;101498.17;105363;1277;62707;-71
2022/10/08 12:13:23;;;;;;;7.20;3.60;;;;;;;25.63;31.40;101496.52;105333;1267;61666;-68